Main page
METAR-TAF:

METAR-TAF

Airports :

Badajoz Airport

Badajoz, Spain

latitude: 38-53N, longitude: 006-49W, elevation: 185 m

Current weather observation

The report was made 39 minutes ago, at 16:30 UTC
Wind 8 kt from the West
Temperature 21°C
Humidity 53%
Pressure 1024 hPa
Visibility 10 km or more
no clouds below 1500 m and no cumulonimbus

METAR: LEBZ 211630Z 27008KT CAVOK 21/11 Q1024

Time: 18:09 (17:09 UTC)

Forecast

The report was made 3 hours and 9 minutes ago, at 14:00 UTC
Forecast valid from 21 at 15 UTC to 22 at 15 UTC
Wind 7 kt from the West
Visibility 10 km or more
no clouds below 1500 m and no cumulonimbus
Probability 30% :
Temporary
from 21 at 22 UTC to 22 at 06 UTC
Visibility: 3000 m
Broken clouds at a height of 1400 ft
mist
Becoming
from 22 at 05 UTC to 22 at 07 UTC
Wind 10 kt from the South/Southwest

TAF: LEBZ 211400Z 2115/2215 27007KT CAVOK TX21/2115Z TN05/2207Z PROB30 TEMPO 2122/2206 3000 BR BKN014 BECMG 2205/2207 21010KT

Weather observations and forecasts of more than 4000 airports (METAR and TAF reports).

The available stations are represented by yellow and red dots on the map.

Hover mouse over dot to see the name of the station.

Then click to see weather observations and forecasts.

To change the map : click on the green buttons with a black cross to zoom in, on the green button with a dash to zoom out, or on the green arrows for adjacent maps.


METAR-TAF: